sensor_id;sensor_type;location;lat;lon;timestamp;P1;durP1;ratioP1;P2;durP2;ratioP2
49758;SDS011;70329;45.524;10.194;2023-12-07T00:01:18;11.63;;;6.00;;
49758;SDS011;70329;45.524;10.194;2023-12-07T00:03:46;14.48;;;6.35;;
49758;SDS011;70329;45.524;10.194;2023-12-07T00:06:13;14.32;;;6.40;;
49758;SDS011;70329;45.524;10.194;2023-12-07T00:08:39;12.43;;;6.18;;
49758;SDS011;70329;45.524;10.194;2023-12-07T00:11:06;14.48;;;6.53;;
49758;SDS011;70329;45.524;10.194;2023-12-07T00:13:33;16.95;;;6.63;;
49758;SDS011;70329;45.524;10.194;2023-12-07T00:15:59;12.63;;;6.18;;
49758;SDS011;70329;45.524;10.194;2023-12-07T00:18:27;13.75;;;6.68;;
49758;SDS011;70329;45.524;10.194;2023-12-07T00:20:55;12.82;;;5.82;;
49758;SDS011;70329;45.524;10.194;2023-12-07T00:23:22;13.75;;;6.15;;
49758;SDS011;70329;45.524;10.194;2023-12-07T00:28:15;15.50;;;5.78;;
49758;SDS011;70329;45.524;10.194;2023-12-07T00:30:58;11.95;;;5.40;;
49758;SDS011;70329;45.524;10.194;2023-12-07T00:33:25;10.68;;;5.28;;
49758;SDS011;70329;45.524;10.194;2023-12-07T00:35:52;11.77;;;5.72;;
49758;SDS011;70329;45.524;10.194;2023-12-07T00:38:20;12.13;;;5.43;;
49758;SDS011;70329;45.524;10.194;2023-12-07T00:40:46;13.93;;;5.57;;
49758;SDS011;70329;45.524;10.194;2023-12-07T00:43:13;11.80;;;5.15;;
49758;SDS011;70329;45.524;10.194;2023-12-07T00:45:40;13.27;;;5.43;;
49758;SDS011;70329;45.524;10.194;2023-12-07T00:48:06;13.27;;;5.03;;
49758;SDS011;70329;45.524;10.194;2023-12-07T00:50:33;12.65;;;4.80;;
49758;SDS011;70329;45.524;10.194;2023-12-07T00:53:00;11.35;;;5.25;;
49758;SDS011;70329;45.524;10.194;2023-12-07T00:55:28;9.95;;;4.65;;
49758;SDS011;70329;45.524;10.194;2023-12-07T00:57:54;9.32;;;4.40;;
49758;SDS011;70329;45.524;10.194;2023-12-07T01:02:48;10.27;;;4.50;;
49758;SDS011;70329;45.524;10.194;2023-12-07T01:05:14;9.00;;;4.18;;
49758;SDS011;70329;45.524;10.194;2023-12-07T01:07:41;13.45;;;4.38;;
49758;SDS011;70329;45.524;10.194;2023-12-07T01:10:08;9.30;;;3.83;;
49758;SDS011;70329;45.524;10.194;2023-12-07T01:12:36;11.07;;;4.40;;
49758;SDS011;70329;45.524;10.194;2023-12-07T01:15:03;8.95;;;4.10;;
49758;SDS011;70329;45.524;10.194;2023-12-07T01:17:30;7.72;;;3.85;;
49758;SDS011;70329;45.524;10.194;2023-12-07T01:19:57;9.50;;;3.55;;
49758;SDS011;70329;45.524;10.194;2023-12-07T01:22:24;7.53;;;3.85;;
49758;SDS011;70329;45.524;10.194;2023-12-07T01:24:50;7.82;;;3.88;;
49758;SDS011;70329;45.524;10.194;2023-12-07T01:27:17;8.38;;;3.63;;
49758;SDS011;70329;45.524;10.194;2023-12-07T01:29:45;9.70;;;3.85;;
49758;SDS011;70329;45.524;10.194;2023-12-07T01:32:12;10.32;;;3.80;;
49758;SDS011;70329;45.524;10.194;2023-12-07T01:34:39;7.00;;;3.42;;
49758;SDS011;70329;45.524;10.194;2023-12-07T01:37:06;10.05;;;3.90;;
49758;SDS011;70329;45.524;10.194;2023-12-07T01:39:32;11.02;;;3.55;;
49758;SDS011;70329;45.524;10.194;2023-12-07T01:41:59;9.23;;;3.60;;
49758;SDS011;70329;45.524;10.194;2023-12-07T01:44:26;9.95;;;3.78;;
49758;SDS011;70329;45.524;10.194;2023-12-07T01:46:55;6.82;;;3.60;;
49758;SDS011;70329;45.524;10.194;2023-12-07T01:49:22;7.47;;;3.90;;
49758;SDS011;70329;45.524;10.194;2023-12-07T01:51:48;7.75;;;3.50;;
49758;SDS011;70329;45.524;10.194;2023-12-07T01:54:15;10.13;;;3.83;;
49758;SDS011;70329;45.524;10.194;2023-12-07T01:56:42;8.43;;;3.45;;
49758;SDS011;70329;45.524;10.194;2023-12-07T01:59:09;8.63;;;3.63;;
49758;SDS011;70329;45.524;10.194;2023-12-07T02:01:37;7.28;;;3.75;;
49758;SDS011;70329;45.524;10.194;2023-12-07T02:04:05;7.78;;;3.38;;
49758;SDS011;70329;45.524;10.194;2023-12-07T02:06:32;9.15;;;3.63;;
49758;SDS011;70329;45.524;10.194;2023-12-07T02:08:59;9.02;;;3.42;;
49758;SDS011;70329;45.524;10.194;2023-12-07T02:11:26;7.55;;;2.92;;
49758;SDS011;70329;45.524;10.194;2023-12-07T02:13:53;6.15;;;3.17;;
49758;SDS011;70329;45.524;10.194;2023-12-07T02:16:23;8.77;;;3.35;;
49758;SDS011;70329;45.524;10.194;2023-12-07T02:18:58;7.78;;;3.22;;
49758;SDS011;70329;45.524;10.194;2023-12-07T02:21:34;8.90;;;3.58;;
49758;SDS011;70329;45.524;10.194;2023-12-07T02:24:05;7.10;;;3.20;;
49758;SDS011;70329;45.524;10.194;2023-12-07T02:26:34;9.10;;;3.22;;
49758;SDS011;70329;45.524;10.194;2023-12-07T02:29:02;7.60;;;3.35;;
49758;SDS011;70329;45.524;10.194;2023-12-07T02:31:29;6.00;;;3.08;;
49758;SDS011;70329;45.524;10.194;2023-12-07T02:33:56;5.05;;;2.38;;
49758;SDS011;70329;45.524;10.194;2023-12-07T02:36:24;5.35;;;2.72;;
49758;SDS011;70329;45.524;10.194;2023-12-07T02:38:54;6.53;;;3.08;;
49758;SDS011;70329;45.524;10.194;2023-12-07T02:41:23;4.78;;;2.50;;
49758;SDS011;70329;45.524;10.194;2023-12-07T02:43:52;6.97;;;2.85;;
49758;SDS011;70329;45.524;10.194;2023-12-07T02:46:19;6.63;;;2.47;;
49758;SDS011;70329;45.524;10.194;2023-12-07T02:51:12;6.60;;;2.33;;
49758;SDS011;70329;45.524;10.194;2023-12-07T02:53:39;5.85;;;2.67;;
49758;SDS011;70329;45.524;10.194;2023-12-07T02:56:06;8.10;;;2.65;;
49758;SDS011;70329;45.524;10.194;2023-12-07T02:58:33;5.70;;;2.35;;
49758;SDS011;70329;45.524;10.194;2023-12-07T03:01:01;4.43;;;2.45;;
49758;SDS011;70329;45.524;10.194;2023-12-07T03:03:28;5.45;;;2.40;;
49758;SDS011;70329;45.524;10.194;2023-12-07T03:05:55;7.18;;;2.55;;
49758;SDS011;70329;45.524;10.194;2023-12-07T03:08:22;3.63;;;1.85;;
49758;SDS011;70329;45.524;10.194;2023-12-07T03:10:48;4.88;;;2.33;;
49758;SDS011;70329;45.524;10.194;2023-12-07T03:13:15;5.20;;;2.53;;
49758;SDS011;70329;45.524;10.194;2023-12-07T03:15:41;5.32;;;2.67;;
49758;SDS011;70329;45.524;10.194;2023-12-07T03:18:09;6.40;;;2.35;;
49758;SDS011;70329;45.524;10.194;2023-12-07T03:20:36;7.50;;;2.78;;
49758;SDS011;70329;45.524;10.194;2023-12-07T03:23:03;7.07;;;2.53;;
49758;SDS011;70329;45.524;10.194;2023-12-07T03:25:29;4.97;;;2.63;;
49758;SDS011;70329;45.524;10.194;2023-12-07T03:30:23;4.10;;;2.33;;
49758;SDS011;70329;45.524;10.194;2023-12-07T03:32:49;5.40;;;2.67;;
49758;SDS011;70329;45.524;10.194;2023-12-07T03:35:17;7.88;;;2.25;;
49758;SDS011;70329;45.524;10.194;2023-12-07T03:37:44;4.03;;;1.77;;
49758;SDS011;70329;45.524;10.194;2023-12-07T03:40:11;3.33;;;1.73;;
49758;SDS011;70329;45.524;10.194;2023-12-07T03:42:38;5.80;;;1.77;;
49758;SDS011;70329;45.524;10.194;2023-12-07T03:45:05;5.85;;;1.88;;
49758;SDS011;70329;45.524;10.194;2023-12-07T03:47:32;2.60;;;1.55;;
49758;SDS011;70329;45.524;10.194;2023-12-07T03:49:59;4.22;;;2.00;;
49758;SDS011;70329;45.524;10.194;2023-12-07T03:52:27;5.35;;;1.90;;
49758;SDS011;70329;45.524;10.194;2023-12-07T03:54:53;3.72;;;1.77;;
49758;SDS011;70329;45.524;10.194;2023-12-07T03:57:20;3.67;;;1.80;;
49758;SDS011;70329;45.524;10.194;2023-12-07T03:59:47;5.82;;;2.03;;
49758;SDS011;70329;45.524;10.194;2023-12-07T04:02:13;3.50;;;1.63;;
49758;SDS011;70329;45.524;10.194;2023-12-07T04:04:40;3.58;;;1.65;;
49758;SDS011;70329;45.524;10.194;2023-12-07T04:09:35;5.25;;;1.92;;
49758;SDS011;70329;45.524;10.194;2023-12-07T04:12:01;3.38;;;1.45;;
49758;SDS011;70329;45.524;10.194;2023-12-07T04:14:28;6.97;;;2.03;;
49758;SDS011;70329;45.524;10.194;2023-12-07T04:16:55;3.38;;;2.05;;
49758;SDS011;70329;45.524;10.194;2023-12-07T04:19:21;2.92;;;1.55;;
49758;SDS011;70329;45.524;10.194;2023-12-07T04:21:48;3.78;;;1.80;;
49758;SDS011;70329;45.524;10.194;2023-12-07T04:24:15;3.78;;;1.80;;
49758;SDS011;70329;45.524;10.194;2023-12-07T04:26:43;3.20;;;1.60;;
49758;SDS011;70329;45.524;10.194;2023-12-07T04:29:09;4.30;;;1.70;;
49758;SDS011;70329;45.524;10.194;2023-12-07T04:31:36;4.75;;;1.83;;
49758;SDS011;70329;45.524;10.194;2023-12-07T04:34:03;2.97;;;1.63;;
49758;SDS011;70329;45.524;10.194;2023-12-07T04:36:29;2.55;;;1.58;;
49758;SDS011;70329;45.524;10.194;2023-12-07T04:38:56;3.10;;;1.67;;
49758;SDS011;70329;45.524;10.194;2023-12-07T04:41:23;3.05;;;1.70;;
49758;SDS011;70329;45.524;10.194;2023-12-07T04:43:51;3.38;;;1.60;;
49758;SDS011;70329;45.524;10.194;2023-12-07T04:46:17;4.88;;;1.70;;
49758;SDS011;70329;45.524;10.194;2023-12-07T04:48:44;4.93;;;1.48;;
49758;SDS011;70329;45.524;10.194;2023-12-07T04:51:11;2.70;;;1.60;;
49758;SDS011;70329;45.524;10.194;2023-12-07T04:53:38;2.58;;;1.42;;
49758;SDS011;70329;45.524;10.194;2023-12-07T04:56:05;5.03;;;1.45;;
49758;SDS011;70329;45.524;10.194;2023-12-07T04:58:32;2.17;;;1.27;;
49758;SDS011;70329;45.524;10.194;2023-12-07T05:01:00;2.05;;;1.25;;
49758;SDS011;70329;45.524;10.194;2023-12-07T05:03:27;2.47;;;1.30;;
49758;SDS011;70329;45.524;10.194;2023-12-07T05:05:54;4.80;;;1.50;;
49758;SDS011;70329;45.524;10.194;2023-12-07T05:08:21;2.33;;;1.35;;
49758;SDS011;70329;45.524;10.194;2023-12-07T05:10:47;4.28;;;1.50;;
49758;SDS011;70329;45.524;10.194;2023-12-07T05:13:14;3.53;;;1.63;;
49758;SDS011;70329;45.524;10.194;2023-12-07T05:15:41;3.95;;;1.50;;
49758;SDS011;70329;45.524;10.194;2023-12-07T05:18:09;5.55;;;1.52;;
49758;SDS011;70329;45.524;10.194;2023-12-07T05:20:35;3.88;;;1.40;;
49758;SDS011;70329;45.524;10.194;2023-12-07T05:23:04;4.45;;;1.50;;
49758;SDS011;70329;45.524;10.194;2023-12-07T05:25:31;2.58;;;1.30;;
49758;SDS011;70329;45.524;10.194;2023-12-07T05:27:58;2.88;;;1.27;;
49758;SDS011;70329;45.524;10.194;2023-12-07T05:30:25;4.20;;;1.70;;
49758;SDS011;70329;45.524;10.194;2023-12-07T05:32:52;2.88;;;1.40;;
49758;SDS011;70329;45.524;10.194;2023-12-07T05:35:21;5.10;;;1.58;;
49758;SDS011;70329;45.524;10.194;2023-12-07T05:37:48;23.52;;;9.35;;
49758;SDS011;70329;45.524;10.194;2023-12-07T05:42:42;3.03;;;1.70;;
49758;SDS011;70329;45.524;10.194;2023-12-07T05:45:09;2.58;;;1.30;;
49758;SDS011;70329;45.524;10.194;2023-12-07T05:47:35;1.80;;;1.00;;
49758;SDS011;70329;45.524;10.194;2023-12-07T05:50:02;2.17;;;1.20;;
49758;SDS011;70329;45.524;10.194;2023-12-07T05:52:30;4.05;;;1.17;;
49758;SDS011;70329;45.524;10.194;2023-12-07T05:54:57;3.22;;;1.23;;
49758;SDS011;70329;45.524;10.194;2023-12-07T05:57:24;6.22;;;1.40;;
49758;SDS011;70329;45.524;10.194;2023-12-07T05:59:51;2.30;;;1.25;;
49758;SDS011;70329;45.524;10.194;2023-12-07T06:02:18;2.70;;;1.45;;
49758;SDS011;70329;45.524;10.194;2023-12-07T06:04:44;6.88;;;1.42;;
49758;SDS011;70329;45.524;10.194;2023-12-07T06:07:11;4.15;;;1.30;;
49758;SDS011;70329;45.524;10.194;2023-12-07T06:09:39;3.15;;;1.00;;
49758;SDS011;70329;45.524;10.194;2023-12-07T06:12:07;3.42;;;1.20;;
49758;SDS011;70329;45.524;10.194;2023-12-07T06:14:33;3.42;;;1.15;;
49758;SDS011;70329;45.524;10.194;2023-12-07T06:17:00;3.47;;;1.33;;
49758;SDS011;70329;45.524;10.194;2023-12-07T06:19:27;3.90;;;1.48;;
49758;SDS011;70329;45.524;10.194;2023-12-07T06:21:54;6.20;;;1.33;;
49758;SDS011;70329;45.524;10.194;2023-12-07T06:24:20;5.47;;;1.60;;
49758;SDS011;70329;45.524;10.194;2023-12-07T06:26:51;3.22;;;1.10;;
49758;SDS011;70329;45.524;10.194;2023-12-07T06:29:18;4.47;;;1.58;;
49758;SDS011;70329;45.524;10.194;2023-12-07T06:31:44;4.45;;;1.83;;
49758;SDS011;70329;45.524;10.194;2023-12-07T06:34:11;4.45;;;1.50;;
49758;SDS011;70329;45.524;10.194;2023-12-07T06:36:38;4.85;;;1.80;;
49758;SDS011;70329;45.524;10.194;2023-12-07T06:39:04;5.28;;;1.67;;
49758;SDS011;70329;45.524;10.194;2023-12-07T06:43:59;4.68;;;1.63;;
49758;SDS011;70329;45.524;10.194;2023-12-07T06:46:26;4.65;;;1.48;;
49758;SDS011;70329;45.524;10.194;2023-12-07T06:48:53;8.07;;;2.00;;
49758;SDS011;70329;45.524;10.194;2023-12-07T06:51:19;12.75;;;3.13;;
49758;SDS011;70329;45.524;10.194;2023-12-07T06:53:46;6.43;;;2.03;;
49758;SDS011;70329;45.524;10.194;2023-12-07T06:58:40;2.03;;;1.48;;
49758;SDS011;70329;45.524;10.194;2023-12-07T07:03:34;6.70;;;1.83;;
49758;SDS011;70329;45.524;10.194;2023-12-07T07:06:01;4.60;;;1.90;;
49758;SDS011;70329;45.524;10.194;2023-12-07T07:10:55;40.53;;;8.43;;
49758;SDS011;70329;45.524;10.194;2023-12-07T07:13:22;18.92;;;5.38;;
49758;SDS011;70329;45.524;10.194;2023-12-07T07:15:48;7.28;;;2.40;;
49758;SDS011;70329;45.524;10.194;2023-12-07T07:18:16;3.47;;;1.73;;
49758;SDS011;70329;45.524;10.194;2023-12-07T07:20:43;7.25;;;2.08;;
49758;SDS011;70329;45.524;10.194;2023-12-07T07:23:10;3.58;;;2.13;;
49758;SDS011;70329;45.524;10.194;2023-12-07T07:28:04;5.38;;;2.00;;
49758;SDS011;70329;45.524;10.194;2023-12-07T07:30:31;4.32;;;1.85;;
49758;SDS011;70329;45.524;10.194;2023-12-07T07:32:57;7.40;;;2.35;;
49758;SDS011;70329;45.524;10.194;2023-12-07T07:35:25;3.83;;;2.13;;
49758;SDS011;70329;45.524;10.194;2023-12-07T07:37:53;6.63;;;2.10;;
49758;SDS011;70329;45.524;10.194;2023-12-07T07:40:19;4.88;;;2.03;;
49758;SDS011;70329;45.524;10.194;2023-12-07T07:42:47;5.60;;;2.40;;
49758;SDS011;70329;45.524;10.194;2023-12-07T07:45:14;6.65;;;1.85;;
49758;SDS011;70329;45.524;10.194;2023-12-07T07:47:41;5.28;;;2.17;;
49758;SDS011;70329;45.524;10.194;2023-12-07T07:50:08;3.20;;;1.60;;
49758;SDS011;70329;45.524;10.194;2023-12-07T07:52:37;5.13;;;2.08;;
49758;SDS011;70329;45.524;10.194;2023-12-07T07:55:05;5.05;;;1.80;;
49758;SDS011;70329;45.524;10.194;2023-12-07T07:57:33;9.10;;;2.30;;
49758;SDS011;70329;45.524;10.194;2023-12-07T07:59:59;8.65;;;2.60;;
49758;SDS011;70329;45.524;10.194;2023-12-07T08:02:26;7.65;;;2.28;;
49758;SDS011;70329;45.524;10.194;2023-12-07T08:04:53;8.13;;;2.15;;
49758;SDS011;70329;45.524;10.194;2023-12-07T08:09:47;7.10;;;2.10;;
49758;SDS011;70329;45.524;10.194;2023-12-07T08:12:14;6.85;;;3.28;;
49758;SDS011;70329;45.524;10.194;2023-12-07T08:14:41;10.77;;;4.22;;
49758;SDS011;70329;45.524;10.194;2023-12-07T08:17:08;13.68;;;4.53;;
49758;SDS011;70329;45.524;10.194;2023-12-07T08:22:02;16.90;;;5.95;;
49758;SDS011;70329;45.524;10.194;2023-12-07T08:24:29;17.15;;;5.93;;
49758;SDS011;70329;45.524;10.194;2023-12-07T08:26:57;15.50;;;6.05;;
49758;SDS011;70329;45.524;10.194;2023-12-07T08:29:24;15.15;;;5.20;;
49758;SDS011;70329;45.524;10.194;2023-12-07T08:34:17;11.93;;;5.20;;
49758;SDS011;70329;45.524;10.194;2023-12-07T08:36:43;9.77;;;4.38;;
49758;SDS011;70329;45.524;10.194;2023-12-07T08:39:13;10.02;;;3.90;;
49758;SDS011;70329;45.524;10.194;2023-12-07T08:41:40;8.85;;;3.80;;
49758;SDS011;70329;45.524;10.194;2023-12-07T08:44:08;9.65;;;4.20;;
49758;SDS011;70329;45.524;10.194;2023-12-07T08:46:35;12.57;;;4.57;;
49758;SDS011;70329;45.524;10.194;2023-12-07T08:49:02;9.63;;;4.00;;
49758;SDS011;70329;45.524;10.194;2023-12-07T08:51:28;6.57;;;3.67;;
49758;SDS011;70329;45.524;10.194;2023-12-07T08:53:55;8.77;;;4.05;;
49758;SDS011;70329;45.524;10.194;2023-12-07T08:56:22;8.50;;;3.67;;
49758;SDS011;70329;45.524;10.194;2023-12-07T09:01:17;13.32;;;4.32;;
49758;SDS011;70329;45.524;10.194;2023-12-07T09:03:44;9.20;;;4.25;;
49758;SDS011;70329;45.524;10.194;2023-12-07T09:06:11;17.27;;;6.68;;
49758;SDS011;70329;45.524;10.194;2023-12-07T09:08:37;21.13;;;8.02;;
49758;SDS011;70329;45.524;10.194;2023-12-07T09:11:04;16.02;;;7.05;;
49758;SDS011;70329;45.524;10.194;2023-12-07T09:15:57;13.23;;;6.35;;
49758;SDS011;70329;45.524;10.194;2023-12-07T09:20:52;18.55;;;7.43;;
49758;SDS011;70329;45.524;10.194;2023-12-07T09:23:18;18.83;;;7.20;;
49758;SDS011;70329;45.524;10.194;2023-12-07T09:25:45;19.60;;;8.30;;
49758;SDS011;70329;45.524;10.194;2023-12-07T09:28:12;20.15;;;8.35;;
49758;SDS011;70329;45.524;10.194;2023-12-07T09:30:38;29.30;;;9.35;;
49758;SDS011;70329;45.524;10.194;2023-12-07T09:33:05;19.45;;;9.15;;
49758;SDS011;70329;45.524;10.194;2023-12-07T09:35:33;22.65;;;8.65;;
49758;SDS011;70329;45.524;10.194;2023-12-07T09:38:00;21.00;;;8.60;;
49758;SDS011;70329;45.524;10.194;2023-12-07T09:40:27;23.65;;;8.98;;
49758;SDS011;70329;45.524;10.194;2023-12-07T09:42:54;18.40;;;8.48;;
49758;SDS011;70329;45.524;10.194;2023-12-07T09:45:21;20.60;;;8.38;;
49758;SDS011;70329;45.524;10.194;2023-12-07T09:47:49;23.42;;;9.02;;
49758;SDS011;70329;45.524;10.194;2023-12-07T09:50:16;18.17;;;8.15;;
49758;SDS011;70329;45.524;10.194;2023-12-07T09:52:48;21.58;;;9.05;;
49758;SDS011;70329;45.524;10.194;2023-12-07T09:55:16;22.25;;;9.15;;
49758;SDS011;70329;45.524;10.194;2023-12-07T09:57:43;21.42;;;8.38;;
49758;SDS011;70329;45.524;10.194;2023-12-07T10:00:13;17.40;;;8.35;;
49758;SDS011;70329;45.524;10.194;2023-12-07T10:02:41;22.60;;;8.65;;
49758;SDS011;70329;45.524;10.194;2023-12-07T10:05:09;19.20;;;7.18;;
49758;SDS011;70329;45.524;10.194;2023-12-07T10:07:40;23.20;;;7.90;;
49758;SDS011;70329;45.524;10.194;2023-12-07T10:10:09;18.98;;;7.05;;
49758;SDS011;70329;45.524;10.194;2023-12-07T10:12:43;18.05;;;6.93;;
49758;SDS011;70329;45.524;10.194;2023-12-07T10:15:12;14.38;;;6.55;;
49758;SDS011;70329;45.524;10.194;2023-12-07T10:17:45;18.92;;;6.28;;
49758;SDS011;70329;45.524;10.194;2023-12-07T10:20:14;11.90;;;5.40;;
49758;SDS011;70329;45.524;10.194;2023-12-07T10:22:42;14.38;;;5.30;;
49758;SDS011;70329;45.524;10.194;2023-12-07T10:25:13;17.27;;;6.35;;
49758;SDS011;70329;45.524;10.194;2023-12-07T10:27:41;18.23;;;6.22;;
49758;SDS011;70329;45.524;10.194;2023-12-07T10:30:12;13.43;;;5.78;;
49758;SDS011;70329;45.524;10.194;2023-12-07T10:32:50;22.00;;;6.43;;
49758;SDS011;70329;45.524;10.194;2023-12-07T10:35:18;15.65;;;6.72;;
49758;SDS011;70329;45.524;10.194;2023-12-07T10:37:45;14.18;;;5.85;;
49758;SDS011;70329;45.524;10.194;2023-12-07T10:40:14;15.90;;;6.75;;
49758;SDS011;70329;45.524;10.194;2023-12-07T10:42:47;14.55;;;6.00;;
49758;SDS011;70329;45.524;10.194;2023-12-07T10:45:20;13.27;;;5.72;;
49758;SDS011;70329;45.524;10.194;2023-12-07T10:47:50;16.95;;;7.00;;
49758;SDS011;70329;45.524;10.194;2023-12-07T10:50:21;14.90;;;7.60;;
49758;SDS011;70329;45.524;10.194;2023-12-07T10:52:51;16.67;;;6.28;;
49758;SDS011;70329;45.524;10.194;2023-12-07T10:55:25;17.20;;;5.65;;
49758;SDS011;70329;45.524;10.194;2023-12-07T10:57:56;18.13;;;6.95;;
49758;SDS011;70329;45.524;10.194;2023-12-07T11:00:25;23.45;;;5.95;;
49758;SDS011;70329;45.524;10.194;2023-12-07T11:02:56;9.93;;;4.70;;
49758;SDS011;70329;45.524;10.194;2023-12-07T11:05:25;11.68;;;5.32;;
49758;SDS011;70329;45.524;10.194;2023-12-07T11:07:55;9.68;;;4.22;;
49758;SDS011;70329;45.524;10.194;2023-12-07T11:10:30;8.93;;;4.43;;
49758;SDS011;70329;45.524;10.194;2023-12-07T11:13:05;12.63;;;4.38;;
49758;SDS011;70329;45.524;10.194;2023-12-07T11:15:38;10.05;;;4.50;;
49758;SDS011;70329;45.524;10.194;2023-12-07T11:18:06;10.20;;;4.70;;
49758;SDS011;70329;45.524;10.194;2023-12-07T11:20:41;10.80;;;4.28;;
49758;SDS011;70329;45.524;10.194;2023-12-07T11:23:09;11.15;;;5.13;;
49758;SDS011;70329;45.524;10.194;2023-12-07T11:25:40;10.07;;;3.90;;
49758;SDS011;70329;45.524;10.194;2023-12-07T11:28:14;13.85;;;4.32;;
49758;SDS011;70329;45.524;10.194;2023-12-07T11:30:45;8.38;;;3.42;;
49758;SDS011;70329;45.524;10.194;2023-12-07T11:33:20;9.63;;;3.60;;
49758;SDS011;70329;45.524;10.194;2023-12-07T11:36:05;7.50;;;3.30;;
49758;SDS011;70329;45.524;10.194;2023-12-07T11:38:35;6.25;;;3.42;;
49758;SDS011;70329;45.524;10.194;2023-12-07T11:41:29;9.20;;;4.00;;
49758;SDS011;70329;45.524;10.194;2023-12-07T11:44:03;8.07;;;4.18;;
49758;SDS011;70329;45.524;10.194;2023-12-07T11:46:35;9.18;;;5.32;;
49758;SDS011;70329;45.524;10.194;2023-12-07T11:49:11;11.60;;;5.70;;
49758;SDS011;70329;45.524;10.194;2023-12-07T11:54:18;14.77;;;6.13;;
49758;SDS011;70329;45.524;10.194;2023-12-07T11:56:53;17.45;;;7.35;;
49758;SDS011;70329;45.524;10.194;2023-12-07T11:59:26;17.60;;;7.28;;
49758;SDS011;70329;45.524;10.194;2023-12-07T12:01:58;14.90;;;6.60;;
49758;SDS011;70329;45.524;10.194;2023-12-07T12:04:36;16.90;;;8.00;;
49758;SDS011;70329;45.524;10.194;2023-12-07T12:07:14;22.70;;;8.73;;
49758;SDS011;70329;45.524;10.194;2023-12-07T12:09:41;16.17;;;7.95;;
49758;SDS011;70329;45.524;10.194;2023-12-07T12:12:13;19.02;;;8.90;;
49758;SDS011;70329;45.524;10.194;2023-12-07T12:14:43;20.92;;;8.38;;
49758;SDS011;70329;45.524;10.194;2023-12-07T12:17:14;18.48;;;8.45;;
49758;SDS011;70329;45.524;10.194;2023-12-07T12:19:44;20.30;;;8.88;;
49758;SDS011;70329;45.524;10.194;2023-12-07T12:22:18;16.27;;;8.57;;
49758;SDS011;70329;45.524;10.194;2023-12-07T12:24:46;18.13;;;9.00;;
49758;SDS011;70329;45.524;10.194;2023-12-07T12:27:17;19.55;;;8.77;;
49758;SDS011;70329;45.524;10.194;2023-12-07T12:29:49;15.98;;;7.60;;
49758;SDS011;70329;45.524;10.194;2023-12-07T12:32:17;16.58;;;8.73;;
49758;SDS011;70329;45.524;10.194;2023-12-07T12:34:50;15.13;;;7.95;;
49758;SDS011;70329;45.524;10.194;2023-12-07T12:37:18;13.52;;;7.07;;
49758;SDS011;70329;45.524;10.194;2023-12-07T12:39:48;14.55;;;7.28;;
49758;SDS011;70329;45.524;10.194;2023-12-07T12:42:16;15.77;;;6.45;;
49758;SDS011;70329;45.524;10.194;2023-12-07T12:44:44;12.32;;;6.30;;
49758;SDS011;70329;45.524;10.194;2023-12-07T12:47:12;14.20;;;5.13;;
49758;SDS011;70329;45.524;10.194;2023-12-07T12:49:43;10.00;;;4.53;;
49758;SDS011;70329;45.524;10.194;2023-12-07T12:52:15;8.70;;;4.40;;
49758;SDS011;70329;45.524;10.194;2023-12-07T12:54:47;9.07;;;4.78;;
49758;SDS011;70329;45.524;10.194;2023-12-07T12:57:19;10.65;;;5.13;;
49758;SDS011;70329;45.524;10.194;2023-12-07T12:59:47;15.02;;;5.47;;
49758;SDS011;70329;45.524;10.194;2023-12-07T13:02:19;13.50;;;6.15;;
49758;SDS011;70329;45.524;10.194;2023-12-07T13:04:47;11.98;;;6.53;;
49758;SDS011;70329;45.524;10.194;2023-12-07T13:07:16;13.40;;;6.93;;
49758;SDS011;70329;45.524;10.194;2023-12-07T13:12:09;18.33;;;7.83;;
49758;SDS011;70329;45.524;10.194;2023-12-07T13:14:40;15.27;;;7.10;;
49758;SDS011;70329;45.524;10.194;2023-12-07T13:17:11;14.50;;;6.97;;
49758;SDS011;70329;45.524;10.194;2023-12-07T13:19:43;17.83;;;7.05;;
49758;SDS011;70329;45.524;10.194;2023-12-07T13:22:14;20.75;;;8.10;;
49758;SDS011;70329;45.524;10.194;2023-12-07T13:24:41;17.17;;;9.45;;
49758;SDS011;70329;45.524;10.194;2023-12-07T13:27:09;14.98;;;7.53;;
49758;SDS011;70329;45.524;10.194;2023-12-07T13:29:41;18.13;;;8.60;;
49758;SDS011;70329;45.524;10.194;2023-12-07T13:32:10;20.73;;;8.73;;
49758;SDS011;70329;45.524;10.194;2023-12-07T13:34:39;16.52;;;8.20;;
49758;SDS011;70329;45.524;10.194;2023-12-07T13:37:06;17.67;;;8.48;;
49758;SDS011;70329;45.524;10.194;2023-12-07T13:39:34;16.80;;;8.85;;
49758;SDS011;70329;45.524;10.194;2023-12-07T13:42:03;18.25;;;8.40;;
49758;SDS011;70329;45.524;10.194;2023-12-07T13:44:31;18.92;;;7.93;;
49758;SDS011;70329;45.524;10.194;2023-12-07T13:47:01;13.00;;;7.65;;
49758;SDS011;70329;45.524;10.194;2023-12-07T13:49:30;14.25;;;7.95;;
49758;SDS011;70329;45.524;10.194;2023-12-07T13:51:57;20.45;;;9.75;;
49758;SDS011;70329;45.524;10.194;2023-12-07T13:54:26;17.98;;;8.82;;
49758;SDS011;70329;45.524;10.194;2023-12-07T13:56:54;14.52;;;7.78;;
49758;SDS011;70329;45.524;10.194;2023-12-07T13:59:22;19.27;;;9.95;;
49758;SDS011;70329;45.524;10.194;2023-12-07T14:01:50;16.52;;;8.80;;
49758;SDS011;70329;45.524;10.194;2023-12-07T14:04:24;18.38;;;9.23;;
49758;SDS011;70329;45.524;10.194;2023-12-07T14:06:51;19.17;;;10.07;;
49758;SDS011;70329;45.524;10.194;2023-12-07T14:09:18;21.48;;;10.85;;
49758;SDS011;70329;45.524;10.194;2023-12-07T14:11:49;19.00;;;10.70;;
49758;SDS011;70329;45.524;10.194;2023-12-07T14:14:18;18.85;;;9.40;;
49758;SDS011;70329;45.524;10.194;2023-12-07T14:16:46;18.48;;;9.43;;
49758;SDS011;70329;45.524;10.194;2023-12-07T14:19:15;24.67;;;11.00;;
49758;SDS011;70329;45.524;10.194;2023-12-07T14:21:47;21.67;;;10.57;;
49758;SDS011;70329;45.524;10.194;2023-12-07T14:24:14;21.23;;;10.30;;
49758;SDS011;70329;45.524;10.194;2023-12-07T14:26:43;20.05;;;9.68;;
49758;SDS011;70329;45.524;10.194;2023-12-07T14:31:42;22.38;;;10.85;;
49758;SDS011;70329;45.524;10.194;2023-12-07T14:34:11;18.70;;;9.85;;
49758;SDS011;70329;45.524;10.194;2023-12-07T14:36:43;19.23;;;9.75;;
49758;SDS011;70329;45.524;10.194;2023-12-07T14:39:13;18.55;;;9.85;;
49758;SDS011;70329;45.524;10.194;2023-12-07T14:41:44;21.20;;;10.77;;
49758;SDS011;70329;45.524;10.194;2023-12-07T14:44:18;29.70;;;12.35;;
49758;SDS011;70329;45.524;10.194;2023-12-07T14:46:48;22.10;;;11.00;;
49758;SDS011;70329;45.524;10.194;2023-12-07T14:49:19;20.77;;;11.05;;
49758;SDS011;70329;45.524;10.194;2023-12-07T14:51:47;32.90;;;14.00;;
49758;SDS011;70329;45.524;10.194;2023-12-07T14:54:22;28.77;;;14.82;;
49758;SDS011;70329;45.524;10.194;2023-12-07T14:56:54;30.08;;;13.65;;
49758;SDS011;70329;45.524;10.194;2023-12-07T14:59:27;31.13;;;14.30;;
49758;SDS011;70329;45.524;10.194;2023-12-07T15:01:55;32.38;;;14.82;;
49758;SDS011;70329;45.524;10.194;2023-12-07T15:04:23;28.42;;;13.68;;
49758;SDS011;70329;45.524;10.194;2023-12-07T15:06:54;27.80;;;14.02;;
49758;SDS011;70329;45.524;10.194;2023-12-07T15:09:33;32.70;;;16.15;;
49758;SDS011;70329;45.524;10.194;2023-12-07T15:12:03;29.27;;;16.05;;
49758;SDS011;70329;45.524;10.194;2023-12-07T15:14:33;30.98;;;16.10;;
49758;SDS011;70329;45.524;10.194;2023-12-07T15:17:04;31.10;;;16.13;;
49758;SDS011;70329;45.524;10.194;2023-12-07T15:19:33;33.42;;;17.08;;
49758;SDS011;70329;45.524;10.194;2023-12-07T15:22:03;40.35;;;18.75;;